»·PEaware :: ASA180 KSEA-KGEG

ASA180 :: KSEA-KGEG

FLIGHT INFORMATION

Flight Status: Arrived
Operator:
Alaska Airlines
More flights by this operator :: More flights under this callsign
Pilot: Etienne B. (28927)
Aircraft: AIRBUS A320
(A320)
More flights by this aircraft type
Origin: KSEA Seattle-Tacoma Intl
United States
Destination: KGEG Spokane Intl
United States
More flights between these airports :: More routes between these airports
Route: +SEA7 ZADON ZELAK ZIRAN ZOOMR ZOOMR1
File this flight plan on PilotEdge
Remarks: RMK / SIMBRIEF
Altitude:
(Current/Filed)
27,000ft
Speed:
(Current/Filed)
451kts
Departed: 20-Apr-20 03:53 PM
Arrived: 20-Apr-20 04:30 PM
Distance/Time
Traveled:
193nm/0:37
Distance/Time
To Go:
Arrived

Flight Plot

Page will automatically refresh every two minutes.

Flight plan parsing failed; only flown route is shown


Map Options




Map Legend


Flown Route
Filed Route
Departure Airport
Arrival Airport
Navaid (VOR, NDB)
Fix

Horizontal Profiles

Position Reports

Time Latitude Longitude Heading Altitude Ground
Speed
20-Apr-20 15:24 47.446427 -122.299956 148 386ft 0kts
20-Apr-20 15:25 47.446427 -122.299956 148 386ft 0kts
20-Apr-20 15:26 47.446427 -122.299956 148 386ft 0kts
20-Apr-20 15:27 47.446427 -122.299956 148 386ft 0kts
20-Apr-20 15:28 47.446427 -122.299956 148 386ft 0kts
20-Apr-20 15:29 47.446427 -122.299956 148 386ft 0kts
20-Apr-20 15:30 47.446427 -122.299956 148 386ft 0kts
20-Apr-20 15:31 47.446427 -122.299956 148 386ft 0kts
20-Apr-20 15:32 47.446427 -122.299956 148 386ft 0kts
20-Apr-20 15:33 47.446427 -122.299956 148 386ft 0kts
20-Apr-20 15:34 47.446427 -122.299956 148 386ft 0kts
20-Apr-20 15:35 47.446427 -122.299956 148 386ft 0kts
20-Apr-20 15:36 47.446427 -122.299956 148 386ft 0kts
20-Apr-20 15:37 47.446427 -122.299956 148 386ft 0kts
20-Apr-20 15:38 47.446752 -122.300248 157 388ft 2kts
20-Apr-20 15:39 47.447271 -122.300133 222 389ft 1kts
20-Apr-20 15:40 47.447295 -122.300100 220 389ft 0kts
20-Apr-20 15:41 47.447280 -122.300120 220 389ft 1kts
20-Apr-20 15:42 47.446751 -122.302500 290 395ft 6kts
20-Apr-20 15:43 47.447267 -122.303273 311 399ft 0kts
20-Apr-20 15:44 47.447607 -122.303943 296 400ft 0kts
20-Apr-20 15:45 47.447607 -122.303943 296 400ft 0kts
20-Apr-20 15:46 47.447607 -122.303943 296 400ft 0kts
20-Apr-20 15:47 47.447700 -122.304226 292 400ft 5kts
20-Apr-20 15:48 47.445440 -122.306283 181 394ft 19kts
20-Apr-20 15:49 47.438351 -122.306399 180 370ft 32kts
20-Apr-20 15:50 47.431833 -122.306345 244 326ft 0kts
20-Apr-20 15:51 47.432503 -122.308074 2 328ft 25kts
20-Apr-20 15:52 47.473772 -122.307708 0 1832ft 207kts
20-Apr-20 15:53 47.536972 -122.301329 1 4583ft 262kts
20-Apr-20 15:54 47.607094 -122.269389 51 7938ft 285kts
20-Apr-20 15:55 47.612525 -122.156323 101 11104ft 302kts
20-Apr-20 15:56 47.595968 -122.018144 101 12423ft 372kts
20-Apr-20 15:57 47.577503 -121.864061 101 14788ft 387kts
20-Apr-20 15:58 47.561733 -121.704350 91 16969ft 400kts
20-Apr-20 15:59 47.559690 -121.538091 91 18936ft 410kts
20-Apr-20 16:00 47.557210 -121.367226 91 20685ft 421kts
20-Apr-20 16:01 47.554405 -121.191668 92 22199ft 433kts
20-Apr-20 16:02 47.551280 -121.012633 92 23722ft 440kts
20-Apr-20 16:03 47.547800 -120.829871 92 25122ft 447kts
20-Apr-20 16:04 47.543983 -120.645141 92 26366ft 454kts
20-Apr-20 16:05 47.539806 -120.457348 92 27041ft 458kts
20-Apr-20 16:06 47.532163 -120.269084 94 27048ft 460kts
20-Apr-20 16:07 47.523374 -120.080332 94 27028ft 460kts
20-Apr-20 16:08 47.514237 -119.891146 94 27022ft 462kts
20-Apr-20 16:09 47.504731 -119.700806 94 27058ft 463kts
20-Apr-20 16:10 47.494937 -119.511040 94 27065ft 463kts
20-Apr-20 16:11 47.484797 -119.320750 95 27058ft 463kts
20-Apr-20 16:12 47.474418 -119.131902 95 27054ft 463kts
20-Apr-20 16:13 47.463716 -118.942823 95 26964ft 453kts
20-Apr-20 16:14 47.453575 -118.767378 95 25961ft 411kts
20-Apr-20 16:15 47.443763 -118.603483 95 22505ft 392kts
20-Apr-20 16:16 47.434206 -118.447425 95 19119ft 374kts
20-Apr-20 16:17 47.427429 -118.304253 80 16798ft 334kts
20-Apr-20 16:18 47.459699 -118.179174 65 14934ft 328kts
20-Apr-20 16:19 47.496488 -118.057090 65 12812ft 314kts
20-Apr-20 16:20 47.530470 -117.943219 65 10668ft 293kts
20-Apr-20 16:21 47.562931 -117.835742 65 8508ft 282kts
20-Apr-20 16:22 47.603607 -117.740643 37 6459ft 275kts
20-Apr-20 16:23 47.657410 -117.664927 46 5554ft 259kts
20-Apr-20 16:24 47.706140 -117.590308 45 4719ft 247kts
20-Apr-20 16:25 47.736516 -117.508442 117 3904ft 220kts
20-Apr-20 16:27 47.698208 -117.460615 171 3394ft 163kts
20-Apr-20 16:28 47.659223 -117.473393 234 3179ft 145kts
20-Apr-20 16:29 47.632475 -117.516334 226 2449ft 140kts
20-Apr-20 16:30 47.620181 -117.536499 254 2367ft 0kts
20-Apr-20 16:31 47.620079 -117.537043 254 2368ft 7kts
20-Apr-20 16:32 47.620830 -117.537956 43 2366ft 10kts
20-Apr-20 16:33 47.622614 -117.538183 283 2365ft 5kts
20-Apr-20 16:34 47.622707 -117.539078 299 2366ft 2kts
20-Apr-20 16:35 47.623373 -117.539258 357 2367ft 0kts

Navigation Log

Ident Type
Flight plan parsing failed, navigation log unavailable